createdAt,value
2018-07-13T00:00:00.806Z,9.656064
2018-07-13T00:00:13.319Z,8.04672
2018-07-13T00:00:25.763Z,8.04672
2018-07-13T00:00:38.202Z,8.04672
2018-07-13T00:00:50.628Z,11.265408
2018-07-13T00:01:03.053Z,12.874752
2018-07-13T00:01:15.464Z,11.265408
2018-07-13T00:01:27.883Z,11.265408
2018-07-13T00:01:40.291Z,11.265408
2018-07-13T00:01:52.852Z,11.265408
2018-07-13T00:02:05.260Z,8.04672
2018-07-13T00:02:17.657Z,8.04672
2018-07-13T00:02:30.086Z,8.04672
2018-07-13T00:02:42.499Z,8.04672
2018-07-13T00:02:54.946Z,8.04672
2018-07-13T00:03:07.370Z,6.437376
2018-07-13T00:03:19.791Z,8.04672
2018-07-13T00:03:32.213Z,8.04672
2018-07-13T00:03:44.626Z,8.04672
2018-07-13T00:03:57.029Z,8.04672
2018-07-13T00:04:09.499Z,3.218688
2018-07-13T00:04:21.917Z,3.218688
2018-07-13T00:04:34.347Z,6.437376
2018-07-13T00:04:46.749Z,6.437376
2018-07-13T00:04:59.148Z,6.437376
2018-07-13T00:05:11.564Z,9.656064
2018-07-13T00:05:23.975Z,9.656064
2018-07-13T00:05:36.388Z,9.656064
2018-07-13T00:05:48.797Z,9.656064
2018-07-13T00:06:01.246Z,9.656064
2018-07-13T00:06:13.818Z,3.218688
2018-07-13T00:06:26.227Z,3.218688
2018-07-13T00:06:38.658Z,6.437376
2018-07-13T00:06:51.079Z,6.437376
2018-07-13T00:07:03.504Z,3.218688
2018-07-13T00:07:15.917Z,4.828032
2018-07-13T00:07:28.322Z,6.437376
2018-07-13T00:07:40.783Z,6.437376
2018-07-13T00:07:53.198Z,6.437376
2018-07-13T00:08:05.605Z,3.218688
2018-07-13T00:08:18.020Z,3.218688
2018-07-13T00:08:30.439Z,6.437376
2018-07-13T00:08:42.848Z,8.04672
2018-07-13T00:08:55.255Z,8.04672
2018-07-13T00:09:07.678Z,3.218688
2018-07-13T00:09:20.258Z,3.218688
2018-07-13T00:09:32.669Z,3.218688
2018-07-13T00:09:45.066Z,3.218688
2018-07-13T00:09:57.478Z,4.828032
2018-07-13T00:10:09.893Z,6.437376
2018-07-13T00:10:22.339Z,8.04672
2018-07-13T00:10:34.731Z,9.656064
2018-07-13T00:10:47.149Z,9.656064
2018-07-13T00:10:59.631Z,9.656064
2018-07-13T00:11:12.044Z,3.218688
2018-07-13T00:11:24.496Z,3.218688
2018-07-13T00:11:36.900Z,3.218688
2018-07-13T00:11:49.298Z,3.218688
2018-07-13T00:12:01.694Z,3.218688
2018-07-13T00:12:14.111Z,3.218688
2018-07-13T00:12:26.530Z,3.218688
2018-07-13T00:12:38.941Z,3.218688
2018-07-13T00:12:51.335Z,4.828032
2018-07-13T00:13:03.870Z,3.218688
2018-07-13T00:13:16.281Z,6.437376
2018-07-13T00:13:28.701Z,6.437376
2018-07-13T00:13:41.099Z,6.437376
2018-07-13T00:13:53.486Z,6.437376
2018-07-13T00:14:05.877Z,1.609344
2018-07-13T00:14:18.271Z,3.218688
2018-07-13T00:14:30.687Z,8.04672
2018-07-13T00:14:43.097Z,8.04672
2018-07-13T00:14:55.497Z,8.04672
2018-07-13T00:15:07.983Z,6.437376
2018-07-13T00:15:20.525Z,8.04672
2018-07-13T00:15:32.921Z,8.04672
2018-07-13T00:15:45.319Z,8.04672
2018-07-13T00:15:57.707Z,8.04672
2018-07-13T00:16:10.165Z,4.828032
2018-07-13T00:16:22.558Z,8.04672
2018-07-13T00:16:34.975Z,8.04672
2018-07-13T00:16:47.387Z,8.04672
2018-07-13T00:16:59.783Z,8.04672
2018-07-13T00:17:12.182Z,4.828032
2018-07-13T00:17:24.602Z,9.656064
2018-07-13T00:17:37.008Z,9.656064
2018-07-13T00:17:49.418Z,9.656064
2018-07-13T00:18:01.866Z,9.656064
2018-07-13T00:18:14.277Z,11.265408
2018-07-13T00:18:26.661Z,11.265408
2018-07-13T00:18:39.065Z,11.265408
2018-07-13T00:18:51.472Z,11.265408
2018-07-13T00:19:03.878Z,6.437376
2018-07-13T00:19:16.267Z,8.04672
2018-07-13T00:19:28.693Z,8.04672
2018-07-13T00:19:41.100Z,8.04672
2018-07-13T00:19:53.502Z,8.04672
2018-07-13T00:20:05.904Z,4.828032
2018-07-13T00:20:18.368Z,4.828032
2018-07-13T00:20:30.775Z,4.828032
2018-07-13T00:20:43.165Z,9.656064
2018-07-13T00:20:55.549Z,9.656064
2018-07-13T00:21:07.944Z,9.656064
2018-07-13T00:21:20.368Z,9.656064
2018-07-13T00:21:32.770Z,9.656064
2018-07-13T00:21:45.179Z,9.656064
2018-07-13T00:21:57.581Z,9.656064
2018-07-13T00:22:10.001Z,6.437376
2018-07-13T00:22:22.421Z,6.437376
2018-07-13T00:22:34.835Z,6.437376
2018-07-13T00:22:47.235Z,8.04672
2018-07-13T00:22:59.653Z,8.04672
2018-07-13T00:23:12.201Z,6.437376
2018-07-13T00:23:24.598Z,6.437376
2018-07-13T00:23:37.016Z,6.437376
2018-07-13T00:23:49.425Z,6.437376
2018-07-13T00:24:01.825Z,8.04672
2018-07-13T00:24:14.252Z,6.437376
2018-07-13T00:24:26.662Z,8.04672
2018-07-13T00:24:39.058Z,8.04672
2018-07-13T00:24:51.464Z,8.04672
2018-07-13T00:25:03.885Z,1.609344
2018-07-13T00:25:16.293Z,4.828032
2018-07-13T00:25:28.722Z,4.828032
2018-07-13T00:25:41.136Z,4.828032
2018-07-13T00:25:53.551Z,6.437376
2018-07-13T00:26:05.943Z,1.609344
2018-07-13T00:26:18.377Z,3.218688
2018-07-13T00:26:30.785Z,3.218688
2018-07-13T00:26:43.206Z,3.218688
2018-07-13T00:26:55.617Z,3.218688
2018-07-13T00:27:08.042Z,1.609344
2018-07-13T00:27:20.461Z,3.218688
2018-07-13T00:27:32.893Z,3.218688
2018-07-13T00:27:45.306Z,3.218688
2018-07-13T00:27:57.715Z,3.218688
2018-07-13T00:28:10.321Z,6.437376
2018-07-13T00:28:22.749Z,6.437376
2018-07-13T00:28:35.150Z,8.04672
2018-07-13T00:28:47.583Z,9.656064
2018-07-13T00:28:59.988Z,9.656064
2018-07-13T00:29:12.383Z,6.437376
2018-07-13T00:29:24.790Z,6.437376
2018-07-13T00:29:37.182Z,9.656064
2018-07-13T00:29:49.605Z,9.656064
2018-07-13T00:30:02.024Z,9.656064
2018-07-13T00:30:14.443Z,4.828032
2018-07-13T00:30:26.917Z,4.828032
2018-07-13T00:30:39.325Z,4.828032
2018-07-13T00:30:51.731Z,4.828032
2018-07-13T00:31:04.153Z,3.218688
2018-07-13T00:31:16.579Z,3.218688
2018-07-13T00:31:28.988Z,6.437376
2018-07-13T00:31:41.391Z,8.04672
2018-07-13T00:31:53.823Z,8.04672
2018-07-13T00:32:06.256Z,8.04672
2018-07-13T00:32:18.653Z,8.04672
2018-07-13T00:32:31.056Z,8.04672
2018-07-13T00:32:43.456Z,8.04672
2018-07-13T00:32:55.853Z,8.04672
2018-07-13T00:33:08.274Z,8.04672
2018-07-13T00:33:20.691Z,8.04672
2018-07-13T00:33:33.103Z,8.04672
2018-07-13T00:33:45.644Z,8.04672
2018-07-13T00:33:58.033Z,8.04672
2018-07-13T00:34:10.483Z,3.218688
2018-07-13T00:34:22.900Z,6.437376
2018-07-13T00:34:35.298Z,6.437376
2018-07-13T00:34:47.711Z,6.437376
2018-07-13T00:35:00.125Z,6.437376
2018-07-13T00:35:12.529Z,3.218688
2018-07-13T00:35:24.958Z,3.218688
2018-07-13T00:35:37.376Z,3.218688
2018-07-13T00:35:49.762Z,3.218688
2018-07-13T00:36:02.158Z,3.218688
2018-07-13T00:36:14.549Z,1.609344
2018-07-13T00:36:26.946Z,1.609344
2018-07-13T00:36:39.347Z,1.609344
2018-07-13T00:36:51.761Z,1.609344
2018-07-13T00:37:04.159Z,3.218688
2018-07-13T00:37:16.560Z,3.218688
2018-07-13T00:37:28.960Z,3.218688
2018-07-13T00:37:41.585Z,3.218688
2018-07-13T00:37:53.987Z,3.218688
2018-07-13T00:38:06.448Z,1.609344
2018-07-13T00:38:18.855Z,1.609344
2018-07-13T00:38:31.309Z,1.609344
2018-07-13T00:38:43.714Z,3.218688
2018-07-13T00:38:56.341Z,3.218688
2018-07-13T00:39:08.769Z,3.218688
2018-07-13T00:39:21.169Z,3.218688
2018-07-13T00:39:33.564Z,3.218688
2018-07-13T00:39:45.994Z,3.218688
2018-07-13T00:39:58.535Z,4.828032
2018-07-13T00:40:10.956Z,6.437376
2018-07-13T00:40:23.361Z,6.437376
2018-07-13T00:40:35.778Z,6.437376
2018-07-13T00:40:48.183Z,6.437376
2018-07-13T00:41:00.598Z,6.437376
2018-07-13T00:41:13.037Z,3.218688
2018-07-13T00:41:25.443Z,3.218688
2018-07-13T00:41:37.858Z,3.218688
2018-07-13T00:41:50.273Z,3.218688
2018-07-13T00:42:02.686Z,3.218688
2018-07-13T00:42:15.077Z,3.218688
2018-07-13T00:42:27.496Z,3.218688
2018-07-13T00:42:39.936Z,3.218688
2018-07-13T00:42:52.342Z,3.218688
2018-07-13T00:43:04.814Z,1.609344
2018-07-13T00:43:17.228Z,3.218688
2018-07-13T00:43:29.635Z,3.218688
2018-07-13T00:43:42.036Z,3.218688
2018-07-13T00:43:54.550Z,4.828032
2018-07-13T00:44:06.972Z,4.828032
2018-07-13T00:44:19.385Z,6.437376
2018-07-13T00:44:31.827Z,6.437376
2018-07-13T00:44:44.224Z,8.04672
2018-07-13T00:44:56.640Z,8.04672
2018-07-13T00:45:09.073Z,4.828032
2018-07-13T00:45:21.475Z,6.437376
2018-07-13T00:45:33.886Z,6.437376
2018-07-13T00:45:46.306Z,6.437376
2018-07-13T00:45:58.709Z,6.437376
2018-07-13T00:46:11.121Z,3.218688
2018-07-13T00:46:23.516Z,3.218688
2018-07-13T00:46:35.925Z,3.218688
2018-07-13T00:46:48.328Z,3.218688
2018-07-13T00:47:00.737Z,3.218688
2018-07-13T00:47:13.157Z,3.218688
2018-07-13T00:47:25.575Z,8.04672
2018-07-13T00:47:38.016Z,8.04672
2018-07-13T00:47:50.438Z,8.04672
2018-07-13T00:48:02.878Z,8.04672
2018-07-13T00:48:15.301Z,6.437376
2018-07-13T00:48:27.725Z,6.437376
2018-07-13T00:48:40.144Z,6.437376
2018-07-13T00:48:52.706Z,6.437376
2018-07-13T00:49:05.117Z,3.218688
2018-07-13T00:49:17.554Z,3.218688
2018-07-13T00:49:29.958Z,6.437376
2018-07-13T00:49:42.364Z,6.437376
2018-07-13T00:49:54.761Z,6.437376
2018-07-13T00:50:07.185Z,3.218688
2018-07-13T00:50:19.693Z,3.218688
2018-07-13T00:50:32.090Z,8.04672
2018-07-13T00:50:44.522Z,8.04672
2018-07-13T00:50:56.990Z,8.04672
2018-07-13T00:51:09.632Z,3.218688
2018-07-13T00:51:22.041Z,6.437376
2018-07-13T00:51:34.438Z,6.437376
2018-07-13T00:51:46.845Z,6.437376
2018-07-13T00:51:59.250Z,6.437376
2018-07-13T00:52:11.647Z,4.828032
2018-07-13T00:52:24.073Z,4.828032
2018-07-13T00:52:36.494Z,4.828032
2018-07-13T00:52:48.912Z,4.828032
2018-07-13T00:53:01.311Z,4.828032
2018-07-13T00:53:13.773Z,1.609344
2018-07-13T00:53:26.183Z,6.437376
2018-07-13T00:53:38.590Z,8.04672
2018-07-13T00:53:50.993Z,8.04672
2018-07-13T00:54:03.401Z,3.218688
2018-07-13T00:54:15.805Z,6.437376
2018-07-13T00:54:28.233Z,6.437376
2018-07-13T00:54:40.706Z,6.437376
2018-07-13T00:54:53.107Z,8.04672
2018-07-13T00:55:05.533Z,8.04672
2018-07-13T00:55:17.938Z,8.04672
2018-07-13T00:55:30.339Z,8.04672
2018-07-13T00:55:42.854Z,8.04672
2018-07-13T00:55:55.378Z,8.04672
2018-07-13T00:56:07.784Z,3.218688
2018-07-13T00:56:20.188Z,3.218688
2018-07-13T00:56:32.593Z,3.218688
2018-07-13T00:56:45.041Z,3.218688
2018-07-13T00:56:57.451Z,3.218688
2018-07-13T00:57:09.895Z,3.218688
2018-07-13T00:57:22.295Z,3.218688
2018-07-13T00:57:34.686Z,3.218688
2018-07-13T00:57:47.139Z,3.218688
2018-07-13T00:57:59.553Z,3.218688
2018-07-13T00:58:11.952Z,6.437376
2018-07-13T00:58:24.371Z,6.437376
2018-07-13T00:58:36.771Z,6.437376
2018-07-13T00:58:49.166Z,6.437376
2018-07-13T00:59:01.577Z,6.437376
2018-07-13T00:59:13.981Z,3.218688
2018-07-13T00:59:26.400Z,3.218688
2018-07-13T00:59:38.924Z,6.437376
2018-07-13T00:59:51.491Z,6.437376
2018-07-13T01:00:04.036Z,1.609344
2018-07-13T01:00:16.588Z,3.218688
2018-07-13T01:00:29.021Z,3.218688
2018-07-13T01:00:41.481Z,4.828032
2018-07-13T01:00:53.952Z,8.04672
2018-07-13T01:01:06.365Z,6.437376
2018-07-13T01:01:18.782Z,6.437376
2018-07-13T01:01:31.211Z,6.437376
2018-07-13T01:01:43.727Z,6.437376
2018-07-13T01:01:56.222Z,6.437376
2018-07-13T01:02:08.675Z,3.218688
2018-07-13T01:02:21.092Z,3.218688
2018-07-13T01:02:33.512Z,6.437376
2018-07-13T01:02:45.930Z,8.04672
2018-07-13T01:02:58.346Z,8.04672
2018-07-13T01:03:10.832Z,4.828032
2018-07-13T01:03:23.250Z,8.04672
2018-07-13T01:03:35.657Z,8.04672
2018-07-13T01:03:48.138Z,8.04672
2018-07-13T01:04:00.545Z,8.04672
2018-07-13T01:04:12.956Z,3.218688
2018-07-13T01:04:25.351Z,4.828032
2018-07-13T01:04:37.785Z,8.04672
2018-07-13T01:04:50.257Z,8.04672
2018-07-13T01:05:02.672Z,8.04672
2018-07-13T01:05:15.135Z,6.437376
2018-07-13T01:05:27.553Z,6.437376
2018-07-13T01:05:39.963Z,6.437376
2018-07-13T01:05:52.383Z,6.437376
2018-07-13T01:06:04.843Z,4.828032
2018-07-13T01:06:17.246Z,6.437376
2018-07-13T01:06:29.696Z,6.437376
2018-07-13T01:06:42.125Z,6.437376
2018-07-13T01:06:54.522Z,6.437376
2018-07-13T01:07:06.945Z,3.218688
2018-07-13T01:07:19.367Z,4.828032
2018-07-13T01:07:31.831Z,6.437376
2018-07-13T01:07:44.311Z,9.656064
2018-07-13T01:07:56.728Z,9.656064
2018-07-13T01:08:09.136Z,9.656064
2018-07-13T01:08:21.537Z,9.656064
2018-07-13T01:08:33.930Z,9.656064
2018-07-13T01:08:46.331Z,9.656064
2018-07-13T01:08:58.779Z,9.656064
2018-07-13T01:09:11.219Z,8.04672
2018-07-13T01:09:23.884Z,8.04672
2018-07-13T01:09:36.321Z,8.04672
2018-07-13T01:09:48.730Z,8.04672
2018-07-13T01:10:01.149Z,8.04672
2018-07-13T01:10:13.556Z,3.218688
2018-07-13T01:10:25.962Z,3.218688
2018-07-13T01:10:38.361Z,3.218688
2018-07-13T01:10:50.762Z,3.218688
2018-07-13T01:11:03.373Z,0
2018-07-13T01:11:15.780Z,3.218688
2018-07-13T01:11:28.190Z,3.218688
2018-07-13T01:11:40.600Z,3.218688
2018-07-13T01:11:53.015Z,3.218688
2018-07-13T01:12:05.433Z,1.609344
2018-07-13T01:12:17.839Z,3.218688
2018-07-13T01:12:30.240Z,3.218688
2018-07-13T01:12:42.634Z,3.218688
2018-07-13T01:12:55.045Z,3.218688
2018-07-13T01:13:07.544Z,3.218688
2018-07-13T01:13:19.956Z,3.218688
2018-07-13T01:13:32.363Z,3.218688
2018-07-13T01:13:44.789Z,3.218688
2018-07-13T01:13:57.221Z,3.218688
2018-07-13T01:14:09.638Z,1.609344
2018-07-13T01:14:22.047Z,1.609344
2018-07-13T01:14:34.474Z,1.609344
2018-07-13T01:14:46.905Z,1.609344
2018-07-13T01:14:59.365Z,3.218688
2018-07-13T01:15:11.789Z,1.609344
2018-07-13T01:15:24.195Z,3.218688
2018-07-13T01:15:36.592Z,3.218688
2018-07-13T01:15:49.038Z,3.218688
2018-07-13T01:16:01.449Z,3.218688
2018-07-13T01:16:13.890Z,3.218688
2018-07-13T01:16:26.313Z,3.218688
2018-07-13T01:16:38.744Z,3.218688
2018-07-13T01:16:51.178Z,3.218688
2018-07-13T01:17:03.643Z,1.609344
2018-07-13T01:17:16.075Z,1.609344
2018-07-13T01:17:28.481Z,3.218688
2018-07-13T01:17:40.915Z,3.218688
2018-07-13T01:17:53.344Z,3.218688
2018-07-13T01:18:05.791Z,1.609344
2018-07-13T01:18:18.192Z,1.609344
2018-07-13T01:18:30.604Z,1.609344
2018-07-13T01:18:43.008Z,1.609344
2018-07-13T01:18:55.408Z,1.609344
2018-07-13T01:19:07.817Z,1.609344
2018-07-13T01:19:20.205Z,3.218688
2018-07-13T01:19:32.605Z,3.218688
2018-07-13T01:19:45.011Z,3.218688
2018-07-13T01:19:57.450Z,3.218688
2018-07-13T01:20:09.890Z,3.218688
2018-07-13T01:20:22.294Z,3.218688
2018-07-13T01:20:34.710Z,3.218688
2018-07-13T01:20:47.280Z,3.218688
2018-07-13T01:20:59.680Z,3.218688
2018-07-13T01:21:12.089Z,1.609344
2018-07-13T01:21:24.531Z,1.609344
2018-07-13T01:21:36.927Z,1.609344
2018-07-13T01:21:49.340Z,1.609344
2018-07-13T01:22:01.730Z,1.609344
2018-07-13T01:22:14.121Z,1.609344
2018-07-13T01:22:26.521Z,1.609344
2018-07-13T01:22:38.932Z,3.218688
2018-07-13T01:22:51.330Z,3.218688
2018-07-13T01:23:03.757Z,1.609344
2018-07-13T01:23:16.149Z,1.609344
2018-07-13T01:23:28.556Z,1.609344
2018-07-13T01:23:40.964Z,1.609344
2018-07-13T01:23:53.375Z,1.609344
2018-07-13T01:24:05.770Z,0
2018-07-13T01:24:18.161Z,0
2018-07-13T01:24:30.573Z,0
2018-07-13T01:24:42.975Z,0
2018-07-13T01:24:55.379Z,0
2018-07-13T01:25:07.790Z,0
2018-07-13T01:25:20.198Z,0
2018-07-13T01:25:32.618Z,1.609344
2018-07-13T01:25:45.053Z,1.609344
2018-07-13T01:25:57.451Z,1.609344
2018-07-13T01:26:09.855Z,1.609344
2018-07-13T01:26:22.331Z,3.218688
2018-07-13T01:26:34.930Z,3.218688
2018-07-13T01:26:47.370Z,3.218688
2018-07-13T01:26:59.824Z,3.218688
2018-07-13T01:27:12.267Z,1.609344
2018-07-13T01:27:24.681Z,1.609344
2018-07-13T01:27:37.097Z,1.609344
2018-07-13T01:27:49.494Z,1.609344
2018-07-13T01:28:01.899Z,1.609344
2018-07-13T01:28:14.402Z,1.609344
2018-07-13T01:28:26.812Z,3.218688
2018-07-13T01:28:39.236Z,3.218688
2018-07-13T01:28:51.645Z,3.218688
2018-07-13T01:29:04.049Z,1.609344
2018-07-13T01:29:16.465Z,1.609344
2018-07-13T01:29:28.883Z,1.609344
2018-07-13T01:29:41.298Z,1.609344
2018-07-13T01:29:53.703Z,1.609344
2018-07-13T01:30:06.176Z,1.609344
2018-07-13T01:30:18.583Z,3.218688
2018-07-13T01:30:31.004Z,8.04672
2018-07-13T01:30:43.425Z,8.04672
2018-07-13T01:30:55.868Z,8.04672
2018-07-13T01:31:08.276Z,8.04672
2018-07-13T01:31:20.716Z,8.04672
2018-07-13T01:31:33.120Z,8.04672
2018-07-13T01:31:45.519Z,8.04672
2018-07-13T01:31:57.962Z,9.656064
2018-07-13T01:32:10.356Z,8.04672
2018-07-13T01:32:22.763Z,8.04672
2018-07-13T01:32:35.175Z,8.04672
2018-07-13T01:32:47.563Z,8.04672
2018-07-13T01:32:59.964Z,8.04672
2018-07-13T01:33:12.372Z,8.04672
2018-07-13T01:33:24.798Z,9.656064
2018-07-13T01:33:37.312Z,9.656064
2018-07-13T01:33:49.722Z,9.656064
2018-07-13T01:34:02.132Z,9.656064
2018-07-13T01:34:14.562Z,3.218688
2018-07-13T01:34:26.966Z,3.218688
2018-07-13T01:34:39.426Z,3.218688
2018-07-13T01:34:51.813Z,3.218688
2018-07-13T01:35:04.245Z,1.609344
2018-07-13T01:35:16.661Z,1.609344
2018-07-13T01:35:29.052Z,4.828032
2018-07-13T01:35:41.475Z,6.437376
2018-07-13T01:35:53.879Z,6.437376
2018-07-13T01:36:06.279Z,4.828032
2018-07-13T01:36:18.682Z,4.828032
2018-07-13T01:36:31.080Z,4.828032
2018-07-13T01:36:43.504Z,4.828032
2018-07-13T01:36:55.922Z,4.828032
2018-07-13T01:37:08.347Z,1.609344
2018-07-13T01:37:20.831Z,1.609344
2018-07-13T01:37:33.619Z,1.609344
2018-07-13T01:37:46.027Z,3.218688
2018-07-13T01:37:58.431Z,3.218688
2018-07-13T01:38:10.844Z,3.218688
2018-07-13T01:38:23.335Z,3.218688
2018-07-13T01:38:35.766Z,3.218688
2018-07-13T01:38:48.185Z,3.218688
2018-07-13T01:39:00.728Z,3.218688
2018-07-13T01:39:13.151Z,3.218688
2018-07-13T01:39:25.557Z,3.218688
2018-07-13T01:39:37.976Z,3.218688
2018-07-13T01:39:50.399Z,3.218688
2018-07-13T01:40:02.834Z,3.218688
2018-07-13T01:40:15.234Z,1.609344
2018-07-13T01:40:27.644Z,1.609344
2018-07-13T01:40:40.051Z,3.218688
2018-07-13T01:40:52.477Z,3.218688
2018-07-13T01:41:04.890Z,0
2018-07-13T01:41:17.291Z,1.609344
2018-07-13T01:41:29.710Z,1.609344
2018-07-13T01:41:42.125Z,1.609344
2018-07-13T01:41:54.521Z,1.609344
2018-07-13T01:42:06.981Z,1.609344
2018-07-13T01:42:19.383Z,4.828032
2018-07-13T01:42:31.788Z,4.828032
2018-07-13T01:42:44.204Z,4.828032
2018-07-13T01:42:56.611Z,6.437376
2018-07-13T01:43:09.002Z,8.04672
2018-07-13T01:43:21.423Z,8.04672
2018-07-13T01:43:33.839Z,8.04672
2018-07-13T01:43:46.255Z,8.04672
2018-07-13T01:43:58.684Z,8.04672
2018-07-13T01:44:11.164Z,3.218688
2018-07-13T01:44:23.560Z,6.437376
2018-07-13T01:44:35.956Z,6.437376
2018-07-13T01:44:48.371Z,6.437376
2018-07-13T01:45:00.773Z,6.437376
2018-07-13T01:45:13.207Z,3.218688
2018-07-13T01:45:25.663Z,3.218688
2018-07-13T01:45:38.087Z,3.218688
2018-07-13T01:45:50.507Z,3.218688
2018-07-13T01:46:02.935Z,3.218688
2018-07-13T01:46:15.346Z,1.609344
2018-07-13T01:46:27.813Z,3.218688
2018-07-13T01:46:40.250Z,3.218688
2018-07-13T01:46:52.680Z,3.218688
2018-07-13T01:47:05.112Z,3.218688
2018-07-13T01:47:17.527Z,3.218688
2018-07-13T01:47:29.991Z,3.218688
2018-07-13T01:47:42.410Z,3.218688
2018-07-13T01:47:54.808Z,3.218688
2018-07-13T01:48:07.273Z,3.218688
2018-07-13T01:48:19.717Z,3.218688
2018-07-13T01:48:32.118Z,3.218688
2018-07-13T01:48:44.670Z,3.218688
2018-07-13T01:48:57.126Z,3.218688
2018-07-13T01:49:09.540Z,1.609344
2018-07-13T01:49:21.953Z,3.218688
2018-07-13T01:49:34.373Z,3.218688
2018-07-13T01:49:46.789Z,4.828032
2018-07-13T01:49:59.252Z,4.828032
2018-07-13T01:50:11.680Z,4.828032
2018-07-13T01:50:24.092Z,4.828032
2018-07-13T01:50:36.505Z,4.828032
2018-07-13T01:50:48.910Z,4.828032
2018-07-13T01:51:01.332Z,4.828032
2018-07-13T01:51:13.939Z,3.218688
2018-07-13T01:51:26.351Z,3.218688
2018-07-13T01:51:38.748Z,3.218688
2018-07-13T01:51:51.178Z,3.218688
2018-07-13T01:52:03.675Z,3.218688
2018-07-13T01:52:16.085Z,3.218688
2018-07-13T01:52:28.506Z,4.828032
2018-07-13T01:52:40.916Z,4.828032
2018-07-13T01:52:53.307Z,4.828032
2018-07-13T01:53:05.737Z,3.218688
2018-07-13T01:53:18.208Z,6.437376
2018-07-13T01:53:30.630Z,6.437376
2018-07-13T01:53:43.060Z,6.437376
2018-07-13T01:53:55.485Z,6.437376
2018-07-13T01:54:07.908Z,3.218688
2018-07-13T01:54:20.346Z,3.218688
2018-07-13T01:54:32.755Z,3.218688
2018-07-13T01:54:45.228Z,4.828032
2018-07-13T01:54:57.672Z,4.828032
2018-07-13T01:55:10.097Z,1.609344
2018-07-13T01:55:22.502Z,3.218688
2018-07-13T01:55:35.306Z,6.437376
2018-07-13T01:55:48.957Z,6.437376
2018-07-13T01:56:01.400Z,6.437376
2018-07-13T01:56:13.866Z,3.218688
2018-07-13T01:56:26.280Z,3.218688
2018-07-13T01:56:38.672Z,6.437376
2018-07-13T01:56:51.091Z,8.04672
2018-07-13T01:57:03.500Z,6.437376
2018-07-13T01:57:15.889Z,6.437376
2018-07-13T01:57:28.300Z,8.04672
2018-07-13T01:57:40.710Z,8.04672
2018-07-13T01:57:53.291Z,8.04672
2018-07-13T01:58:05.719Z,6.437376
2018-07-13T01:58:18.149Z,8.04672
2018-07-13T01:58:30.569Z,8.04672
2018-07-13T01:58:42.970Z,8.04672
2018-07-13T01:58:55.379Z,8.04672
2018-07-13T01:59:07.834Z,3.218688
2018-07-13T01:59:20.235Z,3.218688
2018-07-13T01:59:32.660Z,6.437376
2018-07-13T01:59:45.086Z,6.437376
2018-07-13T01:59:57.648Z,6.437376
2018-07-13T02:00:10.416Z,3.218688
2018-07-13T02:00:22.850Z,3.218688
2018-07-13T02:00:35.281Z,3.218688
2018-07-13T02:00:47.736Z,3.218688
2018-07-13T02:01:00.180Z,3.218688
2018-07-13T02:01:12.616Z,1.609344
2018-07-13T02:01:25.157Z,1.609344
2018-07-13T02:01:37.573Z,1.609344
2018-07-13T02:01:50.154Z,1.609344
2018-07-13T02:02:02.577Z,3.218688
2018-07-13T02:02:14.998Z,6.437376
2018-07-13T02:02:27.401Z,6.437376
2018-07-13T02:02:39.797Z,6.437376
2018-07-13T02:02:52.218Z,6.437376
2018-07-13T02:03:04.627Z,3.218688
2018-07-13T02:03:17.040Z,4.828032
2018-07-13T02:03:29.451Z,4.828032
2018-07-13T02:03:41.846Z,4.828032
2018-07-13T02:03:54.316Z,4.828032
2018-07-13T02:04:06.801Z,3.218688
2018-07-13T02:04:19.213Z,3.218688
2018-07-13T02:04:31.635Z,3.218688
2018-07-13T02:04:44.061Z,3.218688
2018-07-13T02:04:56.491Z,3.218688
2018-07-13T02:05:08.916Z,3.218688
2018-07-13T02:05:21.358Z,3.218688
2018-07-13T02:05:33.765Z,3.218688
2018-07-13T02:05:46.175Z,3.218688
2018-07-13T02:05:58.615Z,3.218688
2018-07-13T02:06:11.025Z,1.609344
2018-07-13T02:06:23.455Z,3.218688
2018-07-13T02:06:35.901Z,3.218688
2018-07-13T02:06:48.369Z,3.218688
2018-07-13T02:07:00.773Z,3.218688
2018-07-13T02:07:13.200Z,3.218688
2018-07-13T02:07:25.617Z,3.218688
2018-07-13T02:07:38.017Z,3.218688
2018-07-13T02:07:50.414Z,3.218688
2018-07-13T02:08:02.815Z,3.218688
2018-07-13T02:08:15.244Z,4.828032
2018-07-13T02:08:27.668Z,4.828032
2018-07-13T02:08:40.078Z,4.828032
2018-07-13T02:08:52.495Z,4.828032
2018-07-13T02:09:04.924Z,4.828032
2018-07-13T02:09:17.673Z,4.828032
2018-07-13T02:09:30.094Z,4.828032
2018-07-13T02:09:42.512Z,4.828032
2018-07-13T02:09:54.924Z,4.828032
2018-07-13T02:10:07.322Z,1.609344
2018-07-13T02:10:19.748Z,6.437376
2018-07-13T02:10:32.145Z,8.04672
2018-07-13T02:10:44.555Z,8.04672
2018-07-13T02:10:57.004Z,8.04672
2018-07-13T02:11:09.562Z,3.218688
2018-07-13T02:11:21.975Z,3.218688
2018-07-13T02:11:34.381Z,3.218688
2018-07-13T02:11:46.809Z,3.218688
2018-07-13T02:11:59.208Z,3.218688
2018-07-13T02:12:11.628Z,1.609344
2018-07-13T02:12:24.039Z,4.828032
2018-07-13T02:12:36.468Z,4.828032
2018-07-13T02:12:48.882Z,6.437376
2018-07-13T02:13:01.384Z,6.437376
2018-07-13T02:13:13.790Z,4.828032
2018-07-13T02:13:26.339Z,4.828032
2018-07-13T02:13:38.757Z,4.828032
2018-07-13T02:13:51.163Z,4.828032
2018-07-13T02:14:03.581Z,3.218688
2018-07-13T02:14:15.991Z,4.828032
2018-07-13T02:14:28.403Z,4.828032
2018-07-13T02:14:40.828Z,4.828032
2018-07-13T02:14:53.228Z,4.828032
2018-07-13T02:15:05.654Z,1.609344
2018-07-13T02:15:18.065Z,3.218688
2018-07-13T02:15:30.469Z,3.218688
2018-07-13T02:15:42.891Z,6.437376
2018-07-13T02:15:55.317Z,8.04672
2018-07-13T02:16:07.720Z,6.437376
2018-07-13T02:16:20.134Z,6.437376
2018-07-13T02:16:32.535Z,6.437376
2018-07-13T02:16:44.960Z,8.04672
2018-07-13T02:16:57.399Z,8.04672
2018-07-13T02:17:09.807Z,3.218688
2018-07-13T02:17:22.244Z,3.218688
2018-07-13T02:17:34.713Z,3.218688
2018-07-13T02:17:47.125Z,4.828032
2018-07-13T02:17:59.792Z,6.437376
2018-07-13T02:18:12.218Z,6.437376
2018-07-13T02:18:24.771Z,6.437376
2018-07-13T02:18:37.198Z,6.437376
2018-07-13T02:18:49.628Z,6.437376
2018-07-13T02:19:02.046Z,6.437376
2018-07-13T02:19:14.598Z,6.437376
2018-07-13T02:19:26.999Z,6.437376
2018-07-13T02:19:39.408Z,6.437376
2018-07-13T02:19:51.804Z,6.437376
2018-07-13T02:20:04.212Z,6.437376
2018-07-13T02:20:16.646Z,8.04672
2018-07-13T02:20:29.080Z,8.04672
2018-07-13T02:20:41.513Z,8.04672
2018-07-13T02:20:53.930Z,8.04672
2018-07-13T02:21:06.421Z,6.437376
2018-07-13T02:21:18.829Z,6.437376
2018-07-13T02:21:31.241Z,6.437376
2018-07-13T02:21:43.694Z,6.437376
2018-07-13T02:21:56.126Z,6.437376
2018-07-13T02:22:08.562Z,1.609344
2018-07-13T02:22:20.986Z,3.218688
2018-07-13T02:22:33.410Z,4.828032
2018-07-13T02:22:45.835Z,4.828032
2018-07-13T02:22:58.263Z,4.828032
2018-07-13T02:23:10.680Z,3.218688
2018-07-13T02:23:23.087Z,3.218688
2018-07-13T02:23:35.495Z,3.218688
2018-07-13T02:23:47.915Z,3.218688
2018-07-13T02:24:00.309Z,3.218688
2018-07-13T02:24:12.752Z,1.609344
2018-07-13T02:24:25.162Z,1.609344
2018-07-13T02:24:37.563Z,6.437376
2018-07-13T02:24:49.965Z,6.437376
2018-07-13T02:25:02.387Z,6.437376
2018-07-13T02:25:14.813Z,3.218688
2018-07-13T02:25:27.224Z,3.218688
2018-07-13T02:25:39.623Z,3.218688
2018-07-13T02:25:52.069Z,6.437376
2018-07-13T02:26:04.483Z,3.218688
2018-07-13T02:26:16.889Z,6.437376
2018-07-13T02:26:29.328Z,6.437376
2018-07-13T02:26:41.749Z,6.437376
2018-07-13T02:26:54.171Z,6.437376